Time;durP1;ratioP1;P1;durP2;ratioP2;P2;SDS_P1;SDS_P2;PMS_P1;PMS_P2;Temp;Humidity;BMP_temperature;BMP_pressure;BME280_temperature;BME280_humidity;BME280_pressure;Samples;Min_cycle;Max_cycle;Signal;HPM_P1;HPM_P2
2021/09/21 00:00:24;;;;;;;4.4;3.8;;;;;;;;;;;;;
2021/09/21 00:02:50;;;;;;;4.6;3.6;;;;;;;;;;;;;
2021/09/21 00:05:15;;;;;;;5.1;3.6;;;;;;;;;;;;;
2021/09/21 00:07:41;;;;;;;3.9;3.3;;;;;;;;;;;;;
2021/09/21 00:10:06;;;;;;;4.1;3.6;;;;;;;;;;;;;
2021/09/21 00:12:31;;;;;;;6.1;4.2;;;;;;;;;;;;;
2021/09/21 00:14:56;;;;;;;4;3.3;;;;;;;;;;;;;
2021/09/21 00:17:21;;;;;;;4.6;3.8;;;;;;;;;;;;;
2021/09/21 00:19:46;;;;;;;3.9;3.4;;;;;;;;;;;;;
2021/09/21 00:22:11;;;;;;;4.2;3.6;;;;;;;;;;;;;
2021/09/21 00:24:36;;;;;;;6.5;4.2;;;;;;;;;;;;;
2021/09/21 00:27:02;;;;;;;8.2;4;;;;;;;;;;;;;
2021/09/21 00:29:27;;;;;;;5.5;3.6;;;;;;;;;;;;;
2021/09/21 00:31:59;;;;;;;7.2;4.2;;;;;;;;;;;;;
2021/09/21 00:34:17;;;;;;;7.3;4.1;;;;;;;;;;;;;
2021/09/21 00:36:42;;;;;;;8.1;3.9;;;;;;;;;;;;;
2021/09/21 00:39:07;;;;;;;6.4;4;;;;;;;;;;;;;
2021/09/21 00:41:32;;;;;;;5.4;4.2;;;;;;;;;;;;;
2021/09/21 00:43:58;;;;;;;6.1;3.8;;;;;;;;;;;;;
2021/09/21 00:46:23;;;;;;;4.1;3.5;;;;;;;;;;;;;
2021/09/21 00:48:48;;;;;;;5.2;3.9;;;;;;;;;;;;;
2021/09/21 00:51:13;;;;;;;3.9;3.3;;;;;;;;;;;;;
2021/09/21 00:53:38;;;;;;;4.7;3.7;;;;;;;;;;;;;
2021/09/21 00:56:03;;;;;;;6.6;3.6;;;;;;;;;;;;;
2021/09/21 00:58:43;;;;;;;4.4;3.4;;;;;;;;;;;;;
2021/09/21 01:00:53;;;;;;;4.8;3.4;;;;;;;;;;;;;
2021/09/21 01:03:19;;;;;;;5.9;3.7;;;;;;;;;;;;;
2021/09/21 01:05:44;;;;;;;7;3.9;;;;;;;;;;;;;
2021/09/21 01:08:09;;;;;;;4.5;3.5;;;;;;;;;;;;;
2021/09/21 01:10:34;;;;;;;4.9;3.5;;;;;;;;;;;;;
2021/09/21 01:12:59;;;;;;;4.3;3.7;;;;;;;;;;;;;
2021/09/21 01:15:24;;;;;;;3.9;3.4;;;;;;;;;;;;;
2021/09/21 01:17:50;;;;;;;4.8;3.2;;;;;;;;;;;;;
2021/09/21 01:20:14;;;;;;;4.2;3.4;;;;;;;;;;;;;
2021/09/21 01:22:39;;;;;;;3.7;3.3;;;;;;;;;;;;;
2021/09/21 01:25:05;;;;;;;3.6;3.2;;;;;;;;;;;;;
2021/09/21 01:27:30;;;;;;;5.2;3.2;;;;;;;;;;;;;
2021/09/21 01:29:55;;;;;;;4.4;3.2;;;;;;;;;;;;;
2021/09/21 01:32:22;;;;;;;5.7;3.6;;;;;;;;;;;;;
2021/09/21 01:34:45;;;;;;;4.6;3.2;;;;;;;;;;;;;
2021/09/21 01:37:13;;;;;;;3.8;3.4;;;;;;;;;;;;;
2021/09/21 01:39:36;;;;;;;4.4;3.4;;;;;;;;;;;;;
2021/09/21 01:42:01;;;;;;;4.3;3.2;;;;;;;;;;;;;
2021/09/21 01:44:26;;;;;;;5.2;3.4;;;;;;;;;;;;;
2021/09/21 01:46:51;;;;;;;3.9;3.5;;;;;;;;;;;;;
2021/09/21 01:49:17;;;;;;;3.9;3.2;;;;;;;;;;;;;
2021/09/21 01:51:45;;;;;;;4.3;3.5;;;;;;;;;;;;;
2021/09/21 01:54:17;;;;;;;3.8;3.2;;;;;;;;;;;;;
2021/09/21 01:59:19;;;;;;;3.8;3.1;;;;;;;;;;;;;
2021/09/21 02:01:48;;;;;;;4.3;3.3;;;;;;;;;;;;;
2021/09/21 02:04:13;;;;;;;4.8;3.4;;;;;;;;;;;;;
2021/09/21 02:06:40;;;;;;;6.1;3.9;;;;;;;;;;;;;
2021/09/21 02:09:04;;;;;;;4.5;3.6;;;;;;;;;;;;;
2021/09/21 02:11:29;;;;;;;4.3;3.5;;;;;;;;;;;;;
2021/09/21 02:13:57;;;;;;;4.9;3.6;;;;;;;;;;;;;
2021/09/21 02:16:19;;;;;;;5;3.5;;;;;;;;;;;;;
2021/09/21 02:18:44;;;;;;;3.8;3.2;;;;;;;;;;;;;
2021/09/21 02:21:09;;;;;;;6.6;3.8;;;;;;;;;;;;;
2021/09/21 02:23:35;;;;;;;5.6;3.6;;;;;;;;;;;;;
2021/09/21 02:25:59;;;;;;;5.4;3.9;;;;;;;;;;;;;
2021/09/21 02:28:25;;;;;;;4;3.5;;;;;;;;;;;;;
2021/09/21 02:30:50;;;;;;;4.1;3.5;;;;;;;;;;;;;
2021/09/21 02:33:15;;;;;;;4.1;3.1;;;;;;;;;;;;;
2021/09/21 02:35:40;;;;;;;3.6;3.2;;;;;;;;;;;;;
2021/09/21 02:38:05;;;;;;;4;3.6;;;;;;;;;;;;;
2021/09/21 02:40:30;;;;;;;3.8;3.3;;;;;;;;;;;;;
2021/09/21 02:42:55;;;;;;;4.5;3.2;;;;;;;;;;;;;
2021/09/21 02:45:21;;;;;;;3.9;3.1;;;;;;;;;;;;;
2021/09/21 02:47:46;;;;;;;4.4;3.4;;;;;;;;;;;;;
2021/09/21 02:50:11;;;;;;;3.7;3.3;;;;;;;;;;;;;
2021/09/21 02:52:36;;;;;;;4.4;3.5;;;;;;;;;;;;;
2021/09/21 02:55:04;;;;;;;5.1;3.3;;;;;;;;;;;;;
2021/09/21 02:57:29;;;;;;;3.7;3.2;;;;;;;;;;;;;
2021/09/21 02:59:54;;;;;;;4.2;3.2;;;;;;;;;;;;;
2021/09/21 03:02:19;;;;;;;3.5;3.1;;;;;;;;;;;;;
2021/09/21 03:04:51;;;;;;;4.8;3.6;;;;;;;;;;;;;
2021/09/21 03:07:14;;;;;;;4.6;3.3;;;;;;;;;;;;;
2021/09/21 03:09:50;;;;;;;5;3.4;;;;;;;;;;;;;
2021/09/21 03:12:13;;;;;;;3.7;3.3;;;;;;;;;;;;;
2021/09/21 03:17:16;;;;;;;5.4;3.2;;;;;;;;;;;;;
2021/09/21 03:19:16;;;;;;;5.5;3.5;;;;;;;;;;;;;
2021/09/21 03:21:40;;;;;;;4.8;3.4;;;;;;;;;;;;;
2021/09/21 03:24:05;;;;;;;4.4;3.5;;;;;;;;;;;;;
2021/09/21 03:26:31;;;;;;;4.3;3.6;;;;;;;;;;;;;
2021/09/21 03:28:56;;;;;;;4.8;3.6;;;;;;;;;;;;;
2021/09/21 03:31:21;;;;;;;3.8;3.4;;;;;;;;;;;;;
2021/09/21 03:33:46;;;;;;;4.4;3.4;;;;;;;;;;;;;
2021/09/21 03:36:11;;;;;;;5.3;3.3;;;;;;;;;;;;;
2021/09/21 03:38:36;;;;;;;3.5;3.1;;;;;;;;;;;;;
2021/09/21 03:41:01;;;;;;;4.1;3.4;;;;;;;;;;;;;
2021/09/21 03:43:26;;;;;;;4.1;3.1;;;;;;;;;;;;;
2021/09/21 03:45:51;;;;;;;4.7;3.2;;;;;;;;;;;;;
2021/09/21 03:48:16;;;;;;;6.1;3.4;;;;;;;;;;;;;
2021/09/21 03:50:42;;;;;;;6.2;3.8;;;;;;;;;;;;;
2021/09/21 03:53:07;;;;;;;4.7;3.6;;;;;;;;;;;;;
2021/09/21 03:55:32;;;;;;;4.5;3.8;;;;;;;;;;;;;
2021/09/21 03:57:57;;;;;;;4.7;3.7;;;;;;;;;;;;;
2021/09/21 04:02:31;;;;;;;3.9;3.4;;;;;;;11.61;89.73633;944.3081;;;;
2021/09/21 04:04:57;;;;;;;4.2;3.4;;;;;;;11.62;89.6123;944.3516;;;;
2021/09/21 04:07:23;;;;;;;6.5;4;;;;;;;11.57;89.57031;944.3555;;;;
2021/09/21 04:09:48;;;;;;;4.3;3.4;;;;;;;11.57;89.47656;944.3825;;;;
2021/09/21 04:12:14;;;;;;;4;3.4;;;;;;;11.65;89.37891;944.3943;;;;
2021/09/21 04:14:39;;;;;;;5.9;3.5;;;;;;;11.6;89.80273;944.4635;;;;
2021/09/21 04:17:04;;;;;;;5.7;3.9;;;;;;;11.61;90.02051;944.4804;;;;
2021/09/21 04:19:29;;;;;;;5.2;3.4;;;;;;;11.59;90.14648;944.4308;;;;
2021/09/21 04:21:54;;;;;;;4.1;3.1;;;;;;;11.72;89.11719;944.4402;;;;
2021/09/21 04:24:21;;;;;;;5.4;4;;;;;;;11.59;89.62988;944.3869;;;;
2021/09/21 04:26:46;;;;;;;4.9;3;;;;;;;11.49;89.98633;944.3438;;;;
2021/09/21 04:29:12;;;;;;;4.3;3.3;;;;;;;11.43;89.5293;944.3047;;;;
2021/09/21 04:31:41;;;;;;;4.5;3.2;;;;;;;11.39;89.46387;944.3212;;;;
2021/09/21 04:34:02;;;;;;;4.9;3.7;;;;;;;11.37;89.70996;944.3345;;;;
2021/09/21 04:36:28;;;;;;;4.2;3.5;;;;;;;11.31;90.23535;944.3853;;;;
2021/09/21 04:38:53;;;;;;;4.7;3.4;;;;;;;11.36;89.97168;944.4053;;;;
2021/09/21 04:41:19;;;;;;;4.5;3.4;;;;;;;11.34;90.27637;944.4384;;;;
2021/09/21 04:43:44;;;;;;;4.2;3.5;;;;;;;11.15;90.71582;944.4119;;;;
2021/09/21 04:46:09;;;;;;;3.9;3;;;;;;;11.16;91.04883;944.416;;;;
2021/09/21 04:48:34;;;;;;;6.2;3.6;;;;;;;11.17;91.25684;944.4584;;;;
2021/09/21 04:50:59;;;;;;;4.6;3.4;;;;;;;11.14;91.24121;944.56;;;;
2021/09/21 04:53:25;;;;;;;6.5;3.7;;;;;;;11.01;91.78418;944.6021;;;;
2021/09/21 04:55:50;;;;;;;4.6;3.6;;;;;;;11.09;91.50488;944.5876;;;;
2021/09/21 04:58:43;;;;;;;5.3;3.6;;;;;;;11.14;90.25781;944.619;;;;
2021/09/21 05:01:10;;;;;;;6.2;3.6;;;;;;;11.05;90.47559;944.6244;;;;
2021/09/21 05:03:35;;;;;;;6.9;3.7;;;;;;;10.99;90.85449;944.6089;;;;
2021/09/21 05:06:02;;;;;;;5.2;3.4;;;;;;;10.94;90.99219;944.5872;;;;
2021/09/21 05:08:28;;;;;;;6.6;3.5;;;;;;;10.94;90.86621;944.6301;;;;
2021/09/21 05:10:54;;;;;;;5.1;3.7;;;;;;;10.89;91.78027;944.6962;;;;
2021/09/21 05:13:19;;;;;;;5.5;3.7;;;;;;;10.88;92.07813;944.7017;;;;
2021/09/21 05:15:48;;;;;;;6.8;4.2;;;;;;;10.84;92.03418;944.7536;;;;
2021/09/21 05:18:13;;;;;;;5.3;4;;;;;;;10.83;92.2373;944.7581;;;;
2021/09/21 05:20:38;;;;;;;5.4;4.2;;;;;;;10.88;92.36328;944.7862;;;;
2021/09/21 05:23:03;;;;;;;6.1;4.8;;;;;;;10.91;92.40332;944.7961;;;;
2021/09/21 05:25:28;;;;;;;6.3;4.1;;;;;;;11.12;91.73926;944.8203;;;;
2021/09/21 05:27:53;;;;;;;4.3;3.7;;;;;;;11.11;91.1543;944.7355;;;;
2021/09/21 05:30:20;;;;;;;5.5;3.6;;;;;;;11.12;91.72754;944.7708;;;;
2021/09/21 05:32:45;;;;;;;6;3.6;;;;;;;11.2;91.15039;944.7698;;;;
2021/09/21 05:35:11;;;;;;;5.6;3.5;;;;;;;11.32;90.48828;944.8558;;;;
2021/09/21 05:37:36;;;;;;;6.1;3.7;;;;;;;11.34;90.80078;944.9295;;;;
2021/09/21 05:40:03;;;;;;;7.1;3.7;;;;;;;11.37;91.28906;945.0098;;;;
2021/09/21 05:42:29;;;;;;;4.6;3.5;;;;;;;11.44;91.15332;945.0057;;;;
2021/09/21 05:44:54;;;;;;;4.6;3.5;;;;;;;11.48;91.57324;945.0414;;;;
2021/09/21 05:47:19;;;;;;;4.6;3.5;;;;;;;11.5;91.05273;944.9494;;;;
2021/09/21 05:49:45;;;;;;;4.2;3.5;;;;;;;11.58;91.00098;945.028;;;;
2021/09/21 05:52:10;;;;;;;5.9;4;;;;;;;11.57;90.94141;945.0669;;;;
2021/09/21 05:57:01;;;;;;;6;3.4;;;;;;;11.59;90.77441;945.186;;;;
2021/09/21 05:59:26;;;;;;;3.5;3;;;;;;;11.59;91.08496;945.1742;;;;
2021/09/21 06:01:51;;;;;;;4.7;3.5;;;;;;;11.63;91.2627;945.1512;;;;
2021/09/21 06:04:16;;;;;;;5.7;3.2;;;;;;;11.76;90.36133;945.1859;;;;
2021/09/21 06:06:41;;;;;;;4.5;3;;;;;;;11.74;90.76074;945.267;;;;
2021/09/21 06:09:06;;;;;;;5;3.5;;;;;;;11.77;90.21777;945.2181;;;;
2021/09/21 06:11:34;;;;;;;4.1;3.4;;;;;;;11.78;89.95508;945.2996;;;;
2021/09/21 06:13:58;;;;;;;5.2;3.4;;;;;;;11.84;90.08105;945.2859;;;;
2021/09/21 06:16:58;;;;;;;5;3.4;;;;;;;11.9;89.94629;945.3245;;;;
2021/09/21 06:19:23;;;;;;;5.1;3.8;;;;;;;11.95;89.55469;945.4281;;;;
2021/09/21 06:21:48;;;;;;;5.2;3.6;;;;;;;12.02;89.85645;945.447;;;;
2021/09/21 06:24:14;;;;;;;5.8;3.4;;;;;;;12.07;89.74023;945.4486;;;;
2021/09/21 06:26:39;;;;;;;5.3;3.5;;;;;;;12.09;90.35254;945.4705;;;;
2021/09/21 06:29:04;;;;;;;7.7;3.6;;;;;;;12.1;90.18066;945.5129;;;;
2021/09/21 06:33:54;;;;;;;6.4;3.9;;;;;;;12.13;90.78418;945.6204;;;;
2021/09/21 06:36:20;;;;;;;8.4;4;;;;;;;12.18;90.79395;945.7025;;;;
2021/09/21 06:38:44;;;;;;;9.7;3.8;;;;;;;12.18;89.55566;945.6699;;;;
2021/09/21 06:41:10;;;;;;;8.6;3.7;;;;;;;11.97;90.07422;945.7206;;;;
2021/09/21 06:43:35;;;;;;;6.3;3.6;;;;;;;12.13;89.54492;945.7648;;;;
2021/09/21 06:46:00;;;;;;;5.6;3.3;;;;;;;12.18;88.69824;945.8128;;;;
2021/09/21 06:48:25;;;;;;;4.2;3.4;;;;;;;12.25;88.1709;945.8803;;;;
2021/09/21 06:50:50;;;;;;;4.2;3.2;;;;;;;12.28;87.84766;945.8865;;;;
2021/09/21 06:53:15;;;;;;;4.5;3.3;;;;;;;12.22;88.11914;945.9031;;;;
2021/09/21 06:55:40;;;;;;;5.5;3.7;;;;;;;11.98;88.88672;945.9163;;;;
2021/09/21 06:58:33;;;;;;;5.7;4.1;;;;;;;11.97;89.56836;946.0302;;;;
2021/09/21 07:00:57;;;;;;;5.2;3.9;;;;;;;11.98;90.13379;945.9897;;;;
2021/09/21 07:03:22;;;;;;;5.5;3.7;;;;;;;12.11;89.12891;946.0208;;;;
2021/09/21 07:05:48;;;;;;;7.2;4;;;;;;;12.08;89.2627;946.0931;;;;
2021/09/21 07:08:30;;;;;;;5.8;3.7;;;;;;;12.22;89.07031;946.0906;;;;
2021/09/21 07:10:58;;;;;;;5.2;3.7;;;;;;;12.34;87.47949;946.1071;;;;
2021/09/21 07:13:23;;;;;;;6;3.7;;;;;;;12.44;86.14648;946.1063;;;;
2021/09/21 07:15:50;;;;;;;5.7;3.6;;;;;;;12.45;86.32031;946.1926;;;;
2021/09/21 07:18:15;;;;;;;4.7;3.8;;;;;;;12.19;88.33105;946.2338;;;;
2021/09/21 07:20:43;;;;;;;3.9;3.3;;;;;;;12.08;88.95117;946.3029;;;;
2021/09/21 07:23:08;;;;;;;4.7;3.6;;;;;;;12.18;89.25781;946.315;;;;
2021/09/21 07:25:34;;;;;;;4.3;3.7;;;;;;;12.21;89.97461;946.3664;;;;
2021/09/21 07:28:01;;;;;;;5.9;3.6;;;;;;;12.3;88.04395;946.4073;;;;
2021/09/21 07:30:23;;;;;;;4.2;3.5;;;;;;;12.36;87.64551;946.4227;;;;
2021/09/21 07:32:49;;;;;;;5;3.8;;;;;;;12.22;88.54492;946.4397;;;;
2021/09/21 07:35:14;;;;;;;5;4;;;;;;;12.26;88.875;946.4731;;;;
2021/09/21 07:37:40;;;;;;;4.6;3.6;;;;;;;12.25;88.58301;946.4521;;;;
2021/09/21 07:40:05;;;;;;;4.9;3.9;;;;;;;12.25;88.19336;946.4904;;;;
2021/09/21 07:42:32;;;;;;;5.2;3.7;;;;;;;12.24;87.10449;946.48;;;;
2021/09/21 07:45:00;;;;;;;4.5;3.7;;;;;;;12.31;87.50879;946.5728;;;;
2021/09/21 07:47:23;;;;;;;4.3;3.7;;;;;;;12.35;87.59668;946.6222;;;;
2021/09/21 07:49:48;;;;;;;4.7;3.5;;;;;;;12.5;86.61816;946.6202;;;;
2021/09/21 07:52:13;;;;;;;5.4;3.8;;;;;;;12.47;86.04883;946.7011;;;;
2021/09/21 07:54:40;;;;;;;4.7;3.8;;;;;;;12.53;85.74023;946.6685;;;;
2021/09/21 07:57:05;;;;;;;5.3;3.7;;;;;;;12.65;86.0498;946.6434;;;;
2021/09/21 07:59:32;;;;;;;4.9;3.6;;;;;;;12.39;85.43848;946.5406;;;;
2021/09/21 08:01:57;;;;;;;6.7;3.8;;;;;;;12.48;85.04102;946.48;;;;
2021/09/21 08:04:24;;;;;;;6.3;3.7;;;;;;;12.57;84.99219;946.5069;;;;
2021/09/21 08:06:49;;;;;;;4.8;3.4;;;;;;;12.78;83.23047;946.5591;;;;
2021/09/21 08:09:16;;;;;;;5.4;4;;;;;;;12.78;83.27441;946.5958;;;;
2021/09/21 08:11:41;;;;;;;4.7;3.8;;;;;;;12.96;83.43555;946.4819;;;;
2021/09/21 08:14:20;;;;;;;6.1;3.5;;;;;;;13.31;82.72168;946.5215;;;;
2021/09/21 08:16:48;;;;;;;5.7;3.6;;;;;;;13.56;80.38965;946.5208;;;;
2021/09/21 08:19:13;;;;;;;4.3;3.4;;;;;;;13.52;80.01563;946.5268;;;;
2021/09/21 08:21:41;;;;;;;5.2;3.6;;;;;;;13.53;81.58105;946.5244;;;;
2021/09/21 08:24:06;;;;;;;4.2;3.5;;;;;;;13.55;81.33105;946.4847;;;;
2021/09/21 08:26:31;;;;;;;4.3;3.5;;;;;;;13.53;80.31738;946.5317;;;;
2021/09/21 08:28:56;;;;;;;4.5;3.8;;;;;;;13.68;81.06738;946.5696;;;;
2021/09/21 08:31:21;;;;;;;4.4;3.7;;;;;;;13.93;81.68945;946.6046;;;;
2021/09/21 08:33:46;;;;;;;6.5;3.7;;;;;;;14.15;79.33691;946.6037;;;;
2021/09/21 08:36:11;;;;;;;4.6;3.8;;;;;;;14.3;78.13086;946.5853;;;;
2021/09/21 08:38:38;;;;;;;5.3;3.8;;;;;;;14.34;79.11816;946.564;;;;
2021/09/21 08:41:03;;;;;;;4.9;3.9;;;;;;;14.6;78.03516;946.6131;;;;
2021/09/21 08:43:28;;;;;;;4.5;4;;;;;;;14.71;75.94434;946.6783;;;;
2021/09/21 08:45:54;;;;;;;4.9;4.1;;;;;;;14.77;77.43164;946.706;;;;
2021/09/21 08:48:19;;;;;;;5.6;4.6;;;;;;;14.86;77.1709;946.759;;;;
2021/09/21 08:50:45;;;;;;;5.6;4.5;;;;;;;14.76;76.06934;946.7949;;;;
2021/09/21 08:53:10;;;;;;;6.5;4.8;;;;;;;14.68;77.77441;946.8529;;;;
2021/09/21 08:55:36;;;;;;;6.4;4.6;;;;;;;14.61;78.02441;946.8521;;;;
2021/09/21 08:58:01;;;;;;;6.2;4.6;;;;;;;14.47;78.71484;946.9038;;;;
2021/09/21 09:00:29;;;;;;;6;4.8;;;;;;;14.53;77.44727;946.9116;;;;
2021/09/21 09:02:54;;;;;;;6.1;4.7;;;;;;;14.39;78.43555;946.9081;;;;
2021/09/21 09:05:19;;;;;;;8;5.2;;;;;;;14.31;79.10059;946.9371;;;;
2021/09/21 09:07:44;;;;;;;7;5.1;;;;;;;14.28;78.32324;946.9969;;;;
2021/09/21 09:10:09;;;;;;;7.2;5.3;;;;;;;14.48;78.42871;947.045;;;;
2021/09/21 09:12:35;;;;;;;7.2;5.1;;;;;;;14.48;79.21191;947.0658;;;;
2021/09/21 09:15:00;;;;;;;6.3;5;;;;;;;14.41;76.95215;946.9347;;;;
2021/09/21 09:17:25;;;;;;;6.2;4.8;;;;;;;14.48;76.75781;946.981;;;;
2021/09/21 09:19:51;;;;;;;7.6;5.2;;;;;;;14.77;75.83984;946.9297;;;;
2021/09/21 09:22:15;;;;;;;6;4.9;;;;;;;14.63;73.32715;946.911;;;;
2021/09/21 09:24:40;;;;;;;5.6;4.4;;;;;;;14.75;74.13086;946.9512;;;;
2021/09/21 09:27:05;;;;;;;9.1;4.3;;;;;;;14.73;74.05859;946.923;;;;
2021/09/21 09:29:31;;;;;;;5.8;4.5;;;;;;;14.97;71.84863;946.9666;;;;
2021/09/21 09:31:58;;;;;;;6.2;4.5;;;;;;;15.24;71.31836;946.9551;;;;
2021/09/21 09:34:25;;;;;;;5.4;4.5;;;;;;;15.4;70.46582;946.899;;;;
2021/09/21 09:36:49;;;;;;;5.4;4.2;;;;;;;15.65;70.18262;946.8946;;;;
2021/09/21 09:39:14;;;;;;;6.4;4.6;;;;;;;15.72;70.99219;946.8787;;;;
2021/09/21 09:41:40;;;;;;;6;4.5;;;;;;;15.87;69.95215;946.9149;;;;
2021/09/21 09:44:05;;;;;;;5.2;4.1;;;;;;;15.88;68.6123;946.9607;;;;
2021/09/21 09:46:30;;;;;;;5.5;4.1;;;;;;;15.63;72.00391;946.978;;;;
2021/09/21 09:48:55;;;;;;;4.6;3.3;;;;;;;15.88;68.03418;946.8804;;;;
2021/09/21 09:51:20;;;;;;;4;3.5;;;;;;;15.8;70.10156;946.908;;;;
2021/09/21 09:53:47;;;;;;;3.6;3.1;;;;;;;15.99;67.36914;947.0036;;;;
2021/09/21 09:56:12;;;;;;;3.5;3.1;;;;;;;16.05;68.36035;947.0201;;;;
2021/09/21 09:58:38;;;;;;;5;3.3;;;;;;;16.4;65.97461;946.9438;;;;
2021/09/21 10:01:03;;;;;;;5.7;4.1;;;;;;;16.65;64.47168;946.9445;;;;
2021/09/21 10:03:29;;;;;;;4.6;4;;;;;;;17.16;65.32422;947.0012;;;;
2021/09/21 10:05:54;;;;;;;4.6;3.9;;;;;;;17.13;64.48535;947.0078;;;;
2021/09/21 10:08:20;;;;;;;5.5;3.7;;;;;;;17.03;65.26953;947.0103;;;;
2021/09/21 10:10:46;;;;;;;5;3.9;;;;;;;17.1;61.87207;947.0046;;;;
2021/09/21 10:13:12;;;;;;;3.9;3.3;;;;;;;17.56;63.00488;946.9581;;;;
2021/09/21 10:15:37;;;;;;;3.9;3.1;;;;;;;17.49;63.13281;946.9785;;;;
2021/09/21 10:18:03;;;;;;;3.7;3.2;;;;;;;17.52;64.32227;946.9928;;;;
2021/09/21 10:20:28;;;;;;;3.5;2.7;;;;;;;17.16;64.06055;947.015;;;;
2021/09/21 10:22:53;;;;;;;3.6;2.9;;;;;;;17.47;64.12793;947.0084;;;;
2021/09/21 10:25:19;;;;;;;3.8;3.4;;;;;;;17.54;61.93457;946.9397;;;;
2021/09/21 10:27:44;;;;;;;3.8;3.1;;;;;;;17.06;64.72852;946.8864;;;;
2021/09/21 10:30:11;;;;;;;3.5;3.2;;;;;;;17.97;64.24902;946.7896;;;;
2021/09/21 10:32:36;;;;;;;3.8;3;;;;;;;18.81;55.50488;946.7901;;;;
2021/09/21 10:35:02;;;;;;;6.3;3.7;;;;;;;19.47;54.69043;946.8372;;;;
2021/09/21 10:37:28;;;;;;;4.3;3.2;;;;;;;20.73;54.35547;946.7739;;;;
2021/09/21 10:39:53;;;;;;;3.1;2.8;;;;;;;21.51;50.2832;946.7332;;;;
2021/09/21 10:42:18;;;;;;;3.9;3.1;;;;;;;22.19;48.83496;946.8;;;;
2021/09/21 10:44:43;;;;;;;3.3;2.6;;;;;;;21.53;49.38379;946.7109;;;;
2021/09/21 10:47:08;;;;;;;3.2;2.9;;;;;;;21.59;49.47168;946.654;;;;
2021/09/21 10:49:35;;;;;;;3.6;3.2;;;;;;;21.7;51.54688;946.6666;;;;
2021/09/21 10:52:00;;;;;;;4.7;3.7;;;;;;;20.87;51.42676;946.6756;;;;
2021/09/21 10:54:25;;;;;;;3.4;3.1;;;;;;;19.71;54.48535;946.6767;;;;
2021/09/21 10:56:50;;;;;;;3.4;3.1;;;;;;;20.43;53.97852;946.7031;;;;
2021/09/21 10:59:16;;;;;;;4.3;3.4;;;;;;;20.91;53.40527;946.7049;;;;
2021/09/21 11:01:42;;;;;;;4;2.9;;;;;;;22.27;47.85938;946.6663;;;;
2021/09/21 11:04:07;;;;;;;3.1;2.8;;;;;;;23.18;46.04297;946.6522;;;;
2021/09/21 11:06:34;;;;;;;3;2.5;;;;;;;24.13;43.10254;946.6365;;;;
2021/09/21 11:09:00;;;;;;;3.2;2.6;;;;;;;24.88;42.27734;946.6097;;;;
2021/09/21 11:11:25;;;;;;;8.9;2.4;;;;;;;24.14;41.87695;946.5729;;;;
2021/09/21 11:13:50;;;;;;;2.6;2.3;;;;;;;24.16;43.5166;946.5698;;;;
2021/09/21 11:16:15;;;;;;;2.5;1.9;;;;;;;24.71;40.34082;946.5538;;;;
2021/09/21 11:18:42;;;;;;;2.9;2.5;;;;;;;22.68;44.79297;946.5348;;;;
2021/09/21 11:21:05;;;;;;;3;2.5;;;;;;;21.95;47.54297;946.4752;;;;
2021/09/21 11:23:31;;;;;;;2.5;2.3;;;;;;;21.3;50.77441;946.4777;;;;
2021/09/21 11:25:56;;;;;;;2.4;2.2;;;;;;;21.19;48.01074;946.4783;;;;
2021/09/21 11:28:22;;;;;;;3;2.5;;;;;;;21.34;47.4668;946.4484;;;;
2021/09/21 11:30:47;;;;;;;3.9;3;;;;;;;22.35;44.30273;946.4827;;;;
2021/09/21 11:33:13;;;;;;;3.2;2.9;;;;;;;22.72;44.40918;946.459;;;;
2021/09/21 11:35:39;;;;;;;2.7;2.5;;;;;;;21.79;45.96875;946.4142;;;;
2021/09/21 11:38:04;;;;;;;3.1;2.7;;;;;;;22.46;45.04102;946.4316;;;;
2021/09/21 11:40:31;;;;;;;2.5;2.3;;;;;;;22.01;48.99219;946.4416;;;;
2021/09/21 11:42:56;;;;;;;2.5;2.3;;;;;;;21.73;48.12793;946.4886;;;;
2021/09/21 11:45:22;;;;;;;2.6;2.2;;;;;;;20.99;50.84277;946.481;;;;
2021/09/21 11:47:48;;;;;;;2.7;2.4;;;;;;;21.47;48.40625;946.426;;;;
2021/09/21 11:50:13;;;;;;;2.8;2.5;;;;;;;21.35;48.28809;946.4029;;;;
2021/09/21 11:52:40;;;;;;;3;2.7;;;;;;;20.37;49.55762;946.3967;;;;
2021/09/21 11:55:04;;;;;;;2.4;2;;;;;;;20.94;49.90234;946.4355;;;;
2021/09/21 11:57:29;;;;;;;2.8;2.5;;;;;;;20.35;51.44727;946.4796;;;;
2021/09/21 11:59:54;;;;;;;3.4;2.6;;;;;;;19.81;52.80762;946.4554;;;;
2021/09/21 12:02:19;;;;;;;3;2.8;;;;;;;19.75;53.06934;946.4369;;;;
2021/09/21 12:04:44;;;;;;;4.4;2.7;;;;;;;19.38;53.96777;946.5859;;;;
2021/09/21 12:07:10;;;;;;;3.4;2.8;;;;;;;19.82;53.13477;946.5565;;;;
2021/09/21 12:09:35;;;;;;;2.8;2.6;;;;;;;19.57;54.85352;946.5519;;;;
2021/09/21 12:12:02;;;;;;;9.6;2.8;;;;;;;20.05;52.39258;946.4706;;;;
2021/09/21 12:14:27;;;;;;;3.7;2.9;;;;;;;20.19;52.15234;946.4453;;;;
2021/09/21 12:16:53;;;;;;;3.6;2.8;;;;;;;19.79;55.1377;946.3968;;;;
2021/09/21 12:19:18;;;;;;;3.1;2.8;;;;;;;19.92;52.59863;946.4172;;;;
2021/09/21 12:21:44;;;;;;;4;2.8;;;;;;;20.84;51.48145;946.3862;;;;
2021/09/21 12:24:09;;;;;;;3.1;2.5;;;;;;;23.01;45.28418;946.3273;;;;
2021/09/21 12:26:34;;;;;;;2.8;2.5;;;;;;;25.11;41.55469;946.2369;;;;
2021/09/21 12:29:00;;;;;;;2.6;2.4;;;;;;;26.47;36.94629;946.1509;;;;
2021/09/21 12:31:25;;;;;;;2.8;2.6;;;;;;;24.97;40.77637;946.2214;;;;
2021/09/21 12:33:50;;;;;;;404.8;17;;;;;;;25.51;40.42383;946.1533;;;;
2021/09/21 12:36:15;;;;;;;3.1;2.5;;;;;;;28.29;34.50586;946.2;;;;
2021/09/21 12:38:40;;;;;;;3;2.1;;;;;;;28.77;33.84082;946.1752;;;;
2021/09/21 12:41:06;;;;;;;2.4;2.2;;;;;;;29.93;31.25488;946.105;;;;
2021/09/21 12:43:32;;;;;;;162.9;16;;;;;;;29.63;31.22266;946.1859;;;;
2021/09/21 12:45:58;;;;;;;216;20.9;;;;;;;27.77;33.96777;946.1931;;;;
2021/09/21 12:48:23;;;;;;;2.3;2.1;;;;;;;28.71;33.5625;946.1369;;;;
2021/09/21 12:50:48;;;;;;;682.9;49;;;;;;;28;33.68848;946.0901;;;;
2021/09/21 12:53:13;;;;;;;2.3;2.1;;;;;;;27.7;35.82617;946.142;;;;
2021/09/21 12:55:42;;;;;;;185.5;15.7;;;;;;;27.25;35.2334;946.2115;;;;
2021/09/21 12:58:05;;;;;;;32.2;5.1;;;;;;;27.27;35.2334;946.1722;;;;
2021/09/21 13:00:32;;;;;;;6.4;4;;;;;;;28.28;33.7334;946.1699;;;;
2021/09/21 13:02:57;;;;;;;4.2;3;;;;;;;27.75;34.3584;946.0972;;;;
2021/09/21 13:05:27;;;;;;;3;2.6;;;;;;;28.63;32.48633;946.0765;;;;
2021/09/21 13:07:53;;;;;;;4;2.6;;;;;;;27.99;34.74414;946.0359;;;;
2021/09/21 13:10:18;;;;;;;4.1;2.4;;;;;;;28.4;34.14648;945.9464;;;;
2021/09/21 13:12:45;;;;;;;151.9;13.5;;;;;;;29.32;32.46484;945.9582;;;;
2021/09/21 13:15:11;;;;;;;17.9;4.1;;;;;;;30.01;30.71191;946.0044;;;;
2021/09/21 13:17:36;;;;;;;2.4;2.2;;;;;;;29.31;31.91504;946.073;;;;
2021/09/21 13:20:02;;;;;;;369.9;37.6;;;;;;;29.31;31.45117;946.0711;;;;
2021/09/21 13:22:27;;;;;;;5.4;3.4;;;;;;;28.27;34.75391;946.0935;;;;
2021/09/21 13:24:56;;;;;;;3.4;2.7;;;;;;;27.59;34.44043;946.1717;;;;
2021/09/21 13:27:21;;;;;;;63.5;5.3;;;;;;;26.02;37.53711;946.0838;;;;
2021/09/21 13:29:46;;;;;;;4.2;2.8;;;;;;;27.09;35.81348;946.0774;;;;
2021/09/21 13:32:13;;;;;;;2.8;2.4;;;;;;;27.48;34.51465;946.068;;;;
2021/09/21 13:35:07;;;;;;;64.8;5;;;;;;;26.77;36.9248;946.1233;;;;
2021/09/21 13:37:32;;;;;;;2.4;2.2;;;;;;;26.04;36.42773;946.0441;;;;
2021/09/21 13:39:58;;;;;;;3.5;2.5;;;;;;;25.51;37.87207;946.1337;;;;
2021/09/21 13:42:23;;;;;;;99.5;6.9;;;;;;;25.25;37.90918;946.1922;;;;
2021/09/21 13:44:48;;;;;;;4.1;3.2;;;;;;;25.44;38.00781;946.1582;;;;
2021/09/21 13:47:13;;;;;;;4.3;2.9;;;;;;;25.54;37.48438;946.1261;;;;
2021/09/21 13:49:40;;;;;;;3.5;2.8;;;;;;;25.37;38.3916;946.2019;;;;
2021/09/21 13:52:09;;;;;;;3.7;3.1;;;;;;;25.35;38.75586;946.1936;;;;
2021/09/21 13:54:30;;;;;;;4.1;3;;;;;;;25.32;38.89453;946.1987;;;;
2021/09/21 13:56:56;;;;;;;79.5;5.2;;;;;;;24.81;39.75977;946.1602;;;;
2021/09/21 13:59:21;;;;;;;4.4;3.9;;;;;;;23.92;42.55273;946.2185;;;;
2021/09/21 14:01:46;;;;;;;308.6;15.9;;;;;;;22.76;44.94238;946.2664;;;;
2021/09/21 14:04:11;;;;;;;4.5;3.8;;;;;;;23.19;44.55078;946.3278;;;;
2021/09/21 14:06:37;;;;;;;4.9;3.7;;;;;;;23.86;42.4873;946.3017;;;;
2021/09/21 14:09:02;;;;;;;3.9;3.5;;;;;;;23.74;42.60547;946.3747;;;;
2021/09/21 14:11:28;;;;;;;4.3;3.7;;;;;;;24.02;41.80762;946.402;;;;
2021/09/21 14:13:53;;;;;;;4.2;3.7;;;;;;;24.02;41.9375;946.4621;;;;
2021/09/21 14:16:18;;;;;;;4.7;3.4;;;;;;;24.12;40.91113;946.4617;;;;
2021/09/21 14:19:03;;;;;;;4.8;3.7;;;;;;;23.46;42.66113;946.4486;;;;
2021/09/21 14:21:28;;;;;;;3.3;3;;;;;;;23.44;42.58887;946.5215;;;;
2021/09/21 14:23:53;;;;;;;4;3.5;;;;;;;23.2;43.59961;946.4965;;;;
2021/09/21 14:26:18;;;;;;;4.1;3.7;;;;;;;22.76;44.00293;946.5472;;;;
2021/09/21 14:28:44;;;;;;;4;3.4;;;;;;;21.72;46.83887;946.5226;;;;
2021/09/21 14:31:09;;;;;;;4;3.1;;;;;;;21.29;47.64844;946.5208;;;;
2021/09/21 14:33:36;;;;;;;3.4;3.1;;;;;;;20.43;50.96777;946.5178;;;;
2021/09/21 14:36:05;;;;;;;6.9;3.3;;;;;;;20.61;49.58398;946.4827;;;;
2021/09/21 14:38:30;;;;;;;4.5;3.4;;;;;;;20.45;49.45117;946.4916;;;;
2021/09/21 14:40:57;;;;;;;4.4;3.5;;;;;;;19.99;49.52832;946.5399;;;;
2021/09/21 14:43:24;;;;;;;4.6;3.6;;;;;;;19.59;50.2168;946.525;;;;
2021/09/21 14:45:49;;;;;;;5.1;3.8;;;;;;;19.23;50.9209;946.4988;;;;
2021/09/21 14:48:14;;;;;;;3.9;3.2;;;;;;;18.93;52.21289;946.5569;;;;
2021/09/21 14:50:41;;;;;;;4;3.2;;;;;;;18.77;53.20605;946.6008;;;;
2021/09/21 14:53:06;;;;;;;4.3;3.2;;;;;;;18.72;53.1084;946.5383;;;;
2021/09/21 14:55:31;;;;;;;161.4;7.8;;;;;;;18.45;53.38867;946.5818;;;;
2021/09/21 14:57:56;;;;;;;5.2;3.5;;;;;;;18.75;54.47266;946.5977;;;;
2021/09/21 15:00:31;;;;;;;12.9;3.8;;;;;;;18.73;55.85449;946.7036;;;;
2021/09/21 15:02:58;;;;;;;4.2;3.5;;;;;;;18.84;53.65723;946.7441;;;;
2021/09/21 15:05:26;;;;;;;4.7;4;;;;;;;18.81;53.37402;946.7667;;;;
2021/09/21 15:07:51;;;;;;;4.5;3.7;;;;;;;18.46;53.41309;946.76;;;;
2021/09/21 15:10:23;;;;;;;6.7;4.5;;;;;;;17.75;57.75098;946.7332;;;;
2021/09/21 15:12:49;;;;;;;5.7;4.8;;;;;;;17.76;56.97363;946.7541;;;;
2021/09/21 15:15:14;;;;;;;5.6;4.2;;;;;;;17.6;57.91699;946.7067;;;;
2021/09/21 15:17:41;;;;;;;5.4;4.2;;;;;;;17.76;59.04102;946.7106;;;;
2021/09/21 15:20:06;;;;;;;5.7;4.2;;;;;;;18.05;58.98535;946.7274;;;;
2021/09/21 15:22:32;;;;;;;5.7;4.3;;;;;;;18.04;58.54395;946.6671;;;;
2021/09/21 15:24:57;;;;;;;4.9;3.8;;;;;;;18.27;57.88867;946.6135;;;;
2021/09/21 15:27:22;;;;;;;5.1;4.4;;;;;;;18.15;57.68555;946.5865;;;;
2021/09/21 15:29:47;;;;;;;5.5;4.2;;;;;;;18.05;56.7334;946.6016;;;;
2021/09/21 15:32:12;;;;;;;5.1;4.3;;;;;;;18.1;57.18066;946.5643;;;;
2021/09/21 15:34:38;;;;;;;4.8;3.6;;;;;;;18.14;57.21973;946.6866;;;;
2021/09/21 15:37:03;;;;;;;5;3.9;;;;;;;17.89;56.88672;946.7062;;;;
2021/09/21 15:39:28;;;;;;;5.6;4;;;;;;;17.96;55.9082;946.7453;;;;